Time,TemperatureF,DewpointF,PressureIn,WindDirection,WindDirectionDegrees,WindSpeedMPH,WindSpeedGustMPH,Humidity,HourlyPrecipIn,Conditions,Clouds,dailyrainin,SolarRadiationWatts/m^2,SoftwareType,DateUTC
2013-09-03 00:00:00,72.4,71.2,29.71,WSW,248,5.0,10.0,96,0.00,OVC,OVC,0.00,0.0,WeatherDisplay:10.37,2013-09-03 04:00:00,
2013-09-03 00:05:00,72.3,71.1,29.71,WSW,250,3.0,9.0,96,0.00,OVC,OVC,0.00,0.0,WeatherDisplay:10.37,2013-09-03 04:05:00,
2013-09-03 00:15:00,72.3,71.1,29.71,WSW,251,1.0,4.0,96,0.00,OVC,OVC,0.00,0.0,WeatherDisplay:10.37,2013-09-03 04:15:00,
2013-09-03 00:20:00,72.3,71.1,29.71,West,280,3.0,6.0,96,0.00,OVC,OVC,0.00,0.0,WeatherDisplay:10.37,2013-09-03 04:20:00,
2013-09-03 00:25:00,72.3,71.4,29.71,WNW,291,2.0,5.0,97,0.00,OVC,OVC,0.00,0.0,WeatherDisplay:10.37,2013-09-03 04:25:00,
2013-09-03 00:30:00,72.3,71.4,29.71,WNW,282,1.0,5.0,97,0.00,OVC,OVC,0.00,0.0,WeatherDisplay:10.37,2013-09-03 04:30:00,
2013-09-03 00:35:00,72.3,71.1,29.71,WSW,251,2.0,7.0,96,0.00,OVC,OVC,0.00,0.0,WeatherDisplay:10.37,2013-09-03 04:35:00,
2013-09-03 00:40:00,72.3,71.4,29.71,SW,230,2.0,7.0,97,0.00,OVC,OVC,0.00,0.0,WeatherDisplay:10.37,2013-09-03 04:40:00,
2013-09-03 00:45:00,72.2,71.0,29.71,SW,234,2.0,5.0,96,0.00,OVC,OVC,0.00,0.0,WeatherDisplay:10.37,2013-09-03 04:45:00,
2013-09-03 00:55:00,72.2,71.0,29.71,SW,231,2.0,5.0,96,0.00,OVC,OVC,0.00,0.0,WeatherDisplay:10.37,2013-09-03 04:55:00,
2013-09-03 01:05:00,72.2,71.0,29.70,WSW,239,1.0,3.0,96,0.00,OVC,OVC,0.00,0.0,WeatherDisplay:10.37,2013-09-03 05:05:00,
2013-09-03 01:10:00,72.1,70.9,29.70,WSW,242,6.0,10.0,96,0.00,OVC,OVC,0.00,0.0,WeatherDisplay:10.37,2013-09-03 05:10:00,
2013-09-03 01:15:00,72.1,70.9,29.70,WSW,237,3.0,6.0,96,0.00,OVC,OVC,0.00,0.0,WeatherDisplay:10.37,2013-09-03 05:15:00,
2013-09-03 01:20:00,72.0,70.8,29.70,WSW,256,5.0,10.0,96,0.00,OVC,OVC,0.00,0.0,WeatherDisplay:10.37,2013-09-03 05:20:00,
2013-09-03 01:25:00,71.9,70.7,29.70,West,264,2.0,7.0,96,0.00,OVC,OVC,0.00,0.0,WeatherDisplay:10.37,2013-09-03 05:25:00,
2013-09-03 01:30:00,71.9,71.0,29.71,West,275,5.0,10.0,97,0.00,OVC,OVC,0.00,0.0,WeatherDisplay:10.37,2013-09-03 05:30:00,
2013-09-03 01:35:00,71.9,71.0,29.71,West,271,2.0,6.0,97,0.00,OVC,OVC,0.00,0.0,WeatherDisplay:10.37,2013-09-03 05:35:00,
2013-09-03 01:40:00,71.8,70.9,29.71,WSW,253,2.0,6.0,97,0.00,OVC,OVC,0.00,0.0,WeatherDisplay:10.37,2013-09-03 05:40:00,
2013-09-03 01:45:00,71.8,70.9,29.70,WSW,250,3.0,7.0,97,0.00,OVC,OVC,0.00,0.0,WeatherDisplay:10.37,2013-09-03 05:45:00,
2013-09-03 01:50:00,71.8,70.9,29.70,WSW,238,1.0,6.0,97,0.00,OVC,OVC,0.00,0.0,WeatherDisplay:10.37,2013-09-03 05:50:00,
2013-09-03 01:55:00,71.8,70.9,29.70,SW,229,3.0,6.0,97,0.00,OVC,OVC,0.00,0.0,WeatherDisplay:10.37,2013-09-03 05:55:00,
2013-09-03 02:00:00,71.8,70.9,29.69,SW,231,3.0,7.0,97,0.00,OVC,OVC,0.00,0.0,WeatherDisplay:10.37,2013-09-03 06:00:00,
2013-09-03 02:05:00,71.8,70.9,29.69,SW,232,2.0,6.0,97,0.00,,,0.00,0.0,WeatherDisplay:10.37,2013-09-03 06:05:00,
2013-09-03 02:10:00,71.7,70.8,29.69,SW,221,3.0,7.0,97,0.00,,,0.00,0.0,WeatherDisplay:10.37,2013-09-03 06:10:00,
2013-09-03 02:15:00,71.7,70.8,29.68,SSW,208,2.0,12.0,97,0.00,,,0.00,0.0,WeatherDisplay:10.37,2013-09-03 06:15:00,
2013-09-03 02:20:00,71.7,70.8,29.68,SW,218,0.0,4.0,97,0.00,,,0.00,0.0,WeatherDisplay:10.37,2013-09-03 06:20:00,
2013-09-03 02:30:00,71.6,70.7,29.68,WSW,247,0.0,4.0,97,0.00,,,0.00,0.0,WeatherDisplay:10.37,2013-09-03 06:30:00,
2013-09-03 02:35:00,71.7,70.8,29.68,WSW,256,2.0,10.0,97,0.00,,,0.00,0.0,WeatherDisplay:10.37,2013-09-03 06:35:00,
2013-09-03 02:40:00,71.9,71.0,29.68,WSW,242,3.0,7.0,97,0.00,,,0.00,0.0,WeatherDisplay:10.37,2013-09-03 06:40:00,
2013-09-03 02:45:00,71.9,71.0,29.68,SW,229,2.0,6.0,97,0.00,,,0.00,0.0,WeatherDisplay:10.37,2013-09-03 06:45:00,
2013-09-03 02:50:00,72.0,71.1,29.68,WSW,237,1.0,6.0,97,0.00,,,0.00,0.0,WeatherDisplay:10.37,2013-09-03 06:50:00,
2013-09-03 02:55:00,72.0,71.1,29.68,WSW,238,1.0,6.0,97,0.00,,,0.00,0.0,WeatherDisplay:10.37,2013-09-03 06:55:00,
2013-09-03 03:00:00,72.0,71.1,29.68,WSW,237,6.0,10.0,97,0.00,,,0.00,0.0,WeatherDisplay:10.37,2013-09-03 07:00:00,
2013-09-03 03:05:00,71.9,71.0,29.68,WSW,244,5.0,12.0,97,0.00,OVC,OVC,0.00,0.0,WeatherDisplay:10.37,2013-09-03 07:05:00,
2013-09-03 03:10:00,71.8,70.9,29.68,WSW,243,2.0,10.0,97,0.00,OVC,OVC,0.00,0.0,WeatherDisplay:10.37,2013-09-03 07:10:00,
2013-09-03 03:15:00,71.7,70.8,29.67,WSW,250,5.0,8.0,97,0.00,OVC,OVC,0.00,0.0,WeatherDisplay:10.37,2013-09-03 07:15:00,
2013-09-03 03:20:00,71.7,70.8,29.67,WSW,247,2.0,6.0,97,0.00,OVC,OVC,0.00,0.0,WeatherDisplay:10.37,2013-09-03 07:20:00,
2013-09-03 03:25:00,71.6,70.7,29.67,WSW,240,6.0,12.0,97,0.00,OVC,OVC,0.00,0.0,WeatherDisplay:10.37,2013-09-03 07:25:00,
2013-09-03 03:30:00,71.5,70.6,29.67,WSW,255,2.0,7.0,97,0.00,OVC,OVC,0.00,0.0,WeatherDisplay:10.37,2013-09-03 07:30:00,
2013-09-03 03:35:00,71.5,70.6,29.67,WSW,251,1.0,5.0,97,0.00,OVC,OVC,0.00,0.0,WeatherDisplay:10.37,2013-09-03 07:35:00,
2013-09-03 03:40:00,71.5,70.6,29.67,WSW,240,1.0,4.0,97,0.00,OVC,OVC,0.00,0.0,WeatherDisplay:10.37,2013-09-03 07:40:00,
2013-09-03 03:45:00,71.4,70.2,29.66,SW,225,3.0,6.0,96,0.00,OVC,OVC,0.00,0.0,WeatherDisplay:10.37,2013-09-03 07:45:00,
2013-09-03 03:50:00,71.3,70.4,29.66,SW,230,2.0,6.0,97,0.00,OVC,OVC,0.00,0.0,WeatherDisplay:10.37,2013-09-03 07:50:00,
2013-09-03 03:55:00,71.3,70.4,29.66,WSW,252,2.0,6.0,97,0.00,OVC,OVC,0.00,0.0,WeatherDisplay:10.37,2013-09-03 07:55:00,
2013-09-03 04:00:00,71.3,70.4,29.66,WSW,252,1.0,3.0,97,0.00,OVC,OVC,0.00,0.0,WeatherDisplay:10.37,2013-09-03 08:00:00,
2013-09-03 04:05:00,71.3,70.4,29.66,WSW,239,3.0,7.0,97,0.00,OVC,OVC,0.00,0.0,WeatherDisplay:10.37,2013-09-03 08:05:00,
2013-09-03 04:10:00,71.4,70.5,29.66,WSW,243,3.0,7.0,97,0.00,OVC,OVC,0.00,0.0,WeatherDisplay:10.37,2013-09-03 08:10:00,
2013-09-03 04:15:00,71.4,70.5,29.66,SW,233,3.0,5.0,97,0.00,OVC,OVC,0.00,0.0,WeatherDisplay:10.37,2013-09-03 08:15:00,
2013-09-03 04:20:00,71.5,70.6,29.66,SW,235,3.0,10.0,97,0.00,OVC,OVC,0.00,0.0,WeatherDisplay:10.37,2013-09-03 08:20:00,
2013-09-03 04:25:00,71.5,70.6,29.66,WSW,249,5.0,10.0,97,0.00,OVC,OVC,0.00,0.0,WeatherDisplay:10.37,2013-09-03 08:25:00,
2013-09-03 04:30:00,71.4,70.2,29.66,WSW,240,6.0,10.0,96,0.00,OVC,OVC,0.00,0.0,WeatherDisplay:10.37,2013-09-03 08:30:00,
2013-09-03 04:40:00,71.5,70.3,29.66,WSW,238,2.0,6.0,96,0.00,OVC,OVC,0.00,0.0,WeatherDisplay:10.37,2013-09-03 08:40:00,
2013-09-03 04:45:00,71.5,70.3,29.67,WSW,246,1.0,5.0,96,0.00,OVC,OVC,0.00,0.0,WeatherDisplay:10.37,2013-09-03 08:45:00,
2013-09-03 04:50:00,71.6,70.4,29.67,WSW,241,2.0,6.0,96,0.00,OVC,OVC,0.00,0.0,WeatherDisplay:10.37,2013-09-03 08:50:00,
2013-09-03 04:55:00,71.6,70.4,29.67,SW,218,2.0,7.0,96,0.00,OVC,OVC,0.00,0.0,WeatherDisplay:10.37,2013-09-03 08:55:00,
2013-09-03 05:00:00,71.7,70.5,29.67,SSW,211,3.0,9.0,96,0.00,OVC,OVC,0.00,0.0,WeatherDisplay:10.37,2013-09-03 09:00:00,
2013-09-03 05:05:00,71.7,70.5,29.67,SW,227,5.0,9.0,96,0.00,OVC,OVC,0.00,0.0,WeatherDisplay:10.37,2013-09-03 09:05:00,
2013-09-03 05:10:00,71.7,70.5,29.67,SW,235,3.0,9.0,96,0.00,OVC,OVC,0.00,0.0,WeatherDisplay:10.37,2013-09-03 09:10:00,
2013-09-03 05:15:00,71.6,70.4,29.67,SW,222,2.0,6.0,96,0.00,OVC,OVC,0.00,0.0,WeatherDisplay:10.37,2013-09-03 09:15:00,
2013-09-03 05:20:00,71.6,70.4,29.67,SW,222,3.0,8.0,96,0.00,OVC,OVC,0.00,0.0,WeatherDisplay:10.37,2013-09-03 09:20:00,
2013-09-03 05:25:00,71.6,70.4,29.67,WSW,237,2.0,7.0,96,0.00,OVC,OVC,0.00,0.0,WeatherDisplay:10.37,2013-09-03 09:25:00,
2013-09-03 05:30:00,71.5,70.3,29.67,WSW,238,2.0,7.0,96,0.00,OVC,OVC,0.00,0.0,WeatherDisplay:10.37,2013-09-03 09:30:00,
2013-09-03 05:35:00,71.5,70.3,29.67,WSW,241,2.0,5.0,96,0.00,OVC,OVC,0.00,0.0,WeatherDisplay:10.37,2013-09-03 09:35:00,
2013-09-03 05:40:00,71.5,70.3,29.67,WSW,251,1.0,5.0,96,0.00,OVC,OVC,0.00,0.0,WeatherDisplay:10.37,2013-09-03 09:40:00,
2013-09-03 05:45:00,71.5,70.3,29.68,WSW,242,1.0,5.0,96,0.00,OVC,OVC,0.00,0.0,WeatherDisplay:10.37,2013-09-03 09:45:00,
2013-09-03 05:50:00,71.4,70.2,29.68,WSW,241,3.0,7.0,96,0.00,OVC,OVC,0.00,0.0,WeatherDisplay:10.37,2013-09-03 09:50:00,
2013-09-03 05:55:00,71.4,70.2,29.68,WSW,238,1.0,9.0,96,0.00,OVC,OVC,0.00,0.0,WeatherDisplay:10.37,2013-09-03 09:55:00,
2013-09-03 06:00:00,71.3,70.1,29.68,WSW,238,3.0,9.0,96,0.00,OVC,OVC,0.00,0.0,WeatherDisplay:10.37,2013-09-03 10:00:00,
2013-09-03 06:05:00,71.3,70.1,29.68,WSW,237,1.0,6.0,96,0.00,OVC,OVC,0.00,0.0,WeatherDisplay:10.37,2013-09-03 10:05:00,
2013-09-03 06:10:00,71.3,70.1,29.68,WSW,240,3.0,6.0,96,0.00,OVC,OVC,0.00,0.0,WeatherDisplay:10.37,2013-09-03 10:10:00,
2013-09-03 06:15:00,71.2,70.0,29.69,WSW,248,3.0,6.0,96,0.00,OVC,OVC,0.00,0.0,WeatherDisplay:10.37,2013-09-03 10:15:00,
2013-09-03 06:20:00,71.2,70.3,29.69,West,265,2.0,6.0,97,0.00,OVC,OVC,0.00,0.0,WeatherDisplay:10.37,2013-09-03 10:20:00,
2013-09-03 06:25:00,71.2,70.3,29.69,West,272,3.0,10.0,97,0.00,OVC,OVC,0.00,0.0,WeatherDisplay:10.37,2013-09-03 10:25:00,
2013-09-03 06:30:00,71.1,70.2,29.70,West,264,3.0,7.0,97,0.00,OVC,OVC,0.00,0.0,WeatherDisplay:10.37,2013-09-03 10:30:00,
2013-09-03 06:35:00,71.0,70.1,29.70,West,263,3.0,9.0,97,0.00,OVC,OVC,0.00,0.0,WeatherDisplay:10.37,2013-09-03 10:35:00,
2013-09-03 06:40:00,71.0,70.1,29.70,WSW,254,3.0,6.0,97,0.00,OVC,OVC,0.00,5.0,WeatherDisplay:10.37,2013-09-03 10:40:00,
2013-09-03 06:45:00,70.9,70.0,29.71,WSW,247,3.0,6.0,97,0.00,OVC,OVC,0.00,0.0,WeatherDisplay:10.37,2013-09-03 10:45:00,
2013-09-03 06:50:00,70.8,69.9,29.71,WSW,246,2.0,7.0,97,0.00,OVC,OVC,0.00,7.0,WeatherDisplay:10.37,2013-09-03 10:50:00,
2013-09-03 06:55:00,70.8,69.9,29.71,SW,236,1.0,7.0,97,0.00,OVC,OVC,0.00,12.0,WeatherDisplay:10.37,2013-09-03 10:55:00,
2013-09-03 07:00:00,70.8,69.9,29.71,WSW,250,3.0,5.0,97,0.00,OVC,OVC,0.00,12.0,WeatherDisplay:10.37,2013-09-03 11:00:00,
2013-09-03 07:05:00,70.8,69.9,29.71,West,267,1.0,5.0,97,0.00,OVC,OVC,0.00,21.0,WeatherDisplay:10.37,2013-09-03 11:05:00,
2013-09-03 07:10:00,70.8,69.9,29.71,West,265,2.0,5.0,97,0.00,OVC,OVC,0.00,28.0,WeatherDisplay:10.37,2013-09-03 11:10:00,
2013-09-03 07:15:00,70.8,69.9,29.71,West,267,2.0,6.0,97,0.00,OVC,OVC,0.00,35.0,WeatherDisplay:10.37,2013-09-03 11:15:00,
2013-09-03 07:20:00,70.8,69.9,29.71,West,280,1.0,4.0,97,0.00,OVC,OVC,0.00,51.0,WeatherDisplay:10.37,2013-09-03 11:20:00,
2013-09-03 07:25:00,70.8,69.9,29.71,West,270,2.0,5.0,97,0.00,OVC,OVC,0.00,51.0,WeatherDisplay:10.37,2013-09-03 11:25:00,
2013-09-03 07:30:00,70.9,70.0,29.72,WSW,245,1.0,4.0,97,0.00,OVC,OVC,0.00,47.0,WeatherDisplay:10.37,2013-09-03 11:30:00,
2013-09-03 07:40:00,70.9,70.0,29.72,WSW,253,2.0,3.0,97,0.00,OVC,OVC,0.00,67.0,WeatherDisplay:10.37,2013-09-03 11:40:00,
2013-09-03 07:45:00,71.0,70.1,29.73,WSW,256,2.0,4.0,97,0.00,OVC,OVC,0.00,21.0,WeatherDisplay:10.37,2013-09-03 11:45:00,
2013-09-03 07:50:00,71.1,70.2,29.73,West,278,1.0,4.0,97,0.00,OVC,OVC,0.00,25.0,WeatherDisplay:10.37,2013-09-03 11:50:00,
2013-09-03 07:55:00,71.1,70.2,29.73,NW,306,2.0,4.0,97,0.00,OVC,OVC,0.00,23.0,WeatherDisplay:10.37,2013-09-03 11:55:00,
2013-09-03 08:00:00,71.0,70.1,29.73,West,272,3.0,6.0,97,0.00,OVC,OVC,0.00,54.0,WeatherDisplay:10.37,2013-09-03 12:00:00,
2013-09-03 08:05:00,71.0,70.1,29.73,West,265,3.0,5.0,97,0.00,OVC,OVC,0.00,67.0,WeatherDisplay:10.37,2013-09-03 12:05:00,
2013-09-03 08:10:00,71.2,70.3,29.73,West,272,2.0,4.0,97,0.00,OVC,OVC,0.00,95.0,WeatherDisplay:10.37,2013-09-03 12:10:00,
2013-09-03 08:15:00,71.2,70.3,29.73,WNW,289,3.0,8.0,97,0.00,OVC,OVC,0.00,65.0,WeatherDisplay:10.37,2013-09-03 12:15:00,
2013-09-03 08:20:00,71.3,70.4,29.73,West,267,2.0,5.0,97,0.00,OVC,OVC,0.00,88.0,WeatherDisplay:10.37,2013-09-03 12:20:00,
2013-09-03 08:25:00,71.4,70.5,29.73,WSW,241,2.0,6.0,97,0.00,OVC,OVC,0.00,69.0,WeatherDisplay:10.37,2013-09-03 12:25:00,
2013-09-03 08:30:00,71.5,70.6,29.74,West,271,3.0,6.0,97,0.00,OVC,OVC,0.00,46.0,WeatherDisplay:10.37,2013-09-03 12:30:00,
2013-09-03 08:35:00,71.6,70.7,29.74,West,274,0.0,6.0,97,0.00,OVC,OVC,0.00,86.0,WeatherDisplay:10.37,2013-09-03 12:35:00,
2013-09-03 08:40:00,71.8,70.9,29.74,West,280,1.0,5.0,97,0.00,OVC,OVC,0.00,120.0,WeatherDisplay:10.37,2013-09-03 12:40:00,
2013-09-03 08:45:00,71.9,70.7,29.74,West,261,2.0,5.0,96,0.00,OVC,OVC,0.00,151.0,WeatherDisplay:10.37,2013-09-03 12:45:00,
2013-09-03 08:50:00,72.1,70.9,29.74,WSW,238,1.0,5.0,96,0.00,OVC,OVC,0.00,171.0,WeatherDisplay:10.37,2013-09-03 12:50:00,
2013-09-03 08:55:00,72.3,71.1,29.74,WSW,251,3.0,7.0,96,0.00,OVC,OVC,0.00,202.0,WeatherDisplay:10.37,2013-09-03 12:55:00,
2013-09-03 09:00:00,72.6,71.1,29.74,West,273,3.0,8.0,95,0.00,OVC,OVC,0.00,183.0,WeatherDisplay:10.37,2013-09-03 13:00:00,
2013-09-03 09:05:00,73.0,71.4,29.74,WNW,295,3.0,9.0,95,0.00,OVC,OVC,0.00,276.0,WeatherDisplay:10.37,2013-09-03 13:05:00,
2013-09-03 09:10:00,73.4,71.6,29.74,WNW,293,3.0,6.0,94,0.00,OVC,OVC,0.00,163.0,WeatherDisplay:10.37,2013-09-03 13:10:00,
2013-09-03 09:15:00,73.7,71.6,29.74,WSW,251,2.0,4.0,93,0.00,OVC,OVC,0.00,188.0,WeatherDisplay:10.37,2013-09-03 13:15:00,
2013-09-03 09:20:00,74.1,71.6,29.74,WSW,247,5.0,9.0,92,0.00,OVC,OVC,0.00,271.0,WeatherDisplay:10.37,2013-09-03 13:20:00,
2013-09-03 09:25:00,74.7,71.8,29.74,WSW,252,2.0,8.0,91,0.00,OVC,OVC,0.00,265.0,WeatherDisplay:10.37,2013-09-03 13:25:00,
2013-09-03 09:30:00,75.0,72.2,29.74,West,261,1.0,5.0,91,0.00,OVC,OVC,0.00,264.0,WeatherDisplay:10.37,2013-09-03 13:30:00,
2013-09-03 09:35:00,75.6,72.1,29.74,West,269,1.0,5.0,89,0.00,OVC,OVC,0.00,237.0,WeatherDisplay:10.37,2013-09-03 13:35:00,
2013-09-03 09:40:00,75.5,72.0,29.74,WSW,243,5.0,9.0,89,0.00,OVC,OVC,0.00,190.0,WeatherDisplay:10.37,2013-09-03 13:40:00,
2013-09-03 09:45:00,75.5,72.0,29.75,WSW,252,1.0,6.0,89,0.00,OVC,OVC,0.00,241.0,WeatherDisplay:10.37,2013-09-03 13:45:00,
2013-09-03 09:50:00,75.5,72.0,29.75,WSW,257,2.0,6.0,89,0.00,OVC,OVC,0.00,297.0,WeatherDisplay:10.37,2013-09-03 13:50:00,
2013-09-03 09:55:00,75.8,72.3,29.75,SSW,213,5.0,8.0,89,0.00,OVC,OVC,0.00,545.0,WeatherDisplay:10.37,2013-09-03 13:55:00,
2013-09-03 10:00:00,76.3,72.5,29.74,SSW,204,3.0,10.0,88,0.00,OVC,OVC,0.00,584.0,WeatherDisplay:10.37,2013-09-03 14:00:00,
2013-09-03 10:10:00,77.1,73.0,29.74,WSW,251,3.0,7.0,87,0.00,OVC,OVC,0.00,591.0,WeatherDisplay:10.37,2013-09-03 14:10:00,
2013-09-03 10:15:00,76.5,72.4,29.74,SSW,209,2.0,6.0,87,0.00,OVC,OVC,0.00,531.0,WeatherDisplay:10.37,2013-09-03 14:15:00,
2013-09-03 10:20:00,76.7,72.5,29.74,SW,229,5.0,9.0,87,0.00,OVC,OVC,0.00,657.0,WeatherDisplay:10.37,2013-09-03 14:20:00,
2013-09-03 10:25:00,76.9,72.7,29.74,SW,235,2.0,10.0,87,0.00,OVC,OVC,0.00,418.0,WeatherDisplay:10.37,2013-09-03 14:25:00,
2013-09-03 10:30:00,77.1,72.6,29.74,SW,224,5.0,7.0,86,0.00,OVC,OVC,0.00,297.0,WeatherDisplay:10.37,2013-09-03 14:30:00,
2013-09-03 10:35:00,76.8,73.0,29.74,SW,226,2.0,6.0,88,0.00,OVC,OVC,0.00,513.0,WeatherDisplay:10.37,2013-09-03 14:35:00,
2013-09-03 10:40:00,77.4,72.8,29.74,SSW,202,2.0,6.0,86,0.00,OVC,OVC,0.00,619.0,WeatherDisplay:10.37,2013-09-03 14:40:00,
2013-09-03 10:45:00,77.1,73.0,29.74,SSW,205,6.0,10.0,87,0.00,OVC,OVC,0.00,517.0,WeatherDisplay:10.37,2013-09-03 14:45:00,
2013-09-03 10:50:00,77.2,72.7,29.74,SW,214,5.0,7.0,86,0.00,OVC,OVC,0.00,687.0,WeatherDisplay:10.37,2013-09-03 14:50:00,
2013-09-03 10:55:00,77.1,72.9,29.74,SSW,212,3.0,7.0,87,0.00,OVC,OVC,0.00,617.0,WeatherDisplay:10.37,2013-09-03 14:55:00,
2013-09-03 11:00:00,77.4,72.9,29.74,SSW,206,5.0,8.0,86,0.00,OVC,OVC,0.00,705.0,WeatherDisplay:10.37,2013-09-03 15:00:00,
2013-09-03 11:10:00,76.6,72.8,29.74,SSW,202,3.0,10.0,88,0.00,SCT,SCT,0.00,703.0,WeatherDisplay:10.37,2013-09-03 15:10:00,
2013-09-03 11:15:00,76.8,72.6,29.74,SSW,199,5.0,8.0,87,0.00,SCT,SCT,0.00,357.0,WeatherDisplay:10.37,2013-09-03 15:15:00,
2013-09-03 11:20:00,76.7,72.9,29.74,SSW,209,3.0,9.0,88,0.00,SCT,SCT,0.00,640.0,WeatherDisplay:10.37,2013-09-03 15:20:00,
2013-09-03 11:25:00,76.3,72.1,29.74,SSW,197,5.0,10.0,87,0.00,SCT,SCT,0.00,728.0,WeatherDisplay:10.37,2013-09-03 15:25:00,
2013-09-03 11:30:00,76.4,72.6,29.74,SW,214,6.0,12.0,88,0.00,SCT,SCT,0.00,650.0,WeatherDisplay:10.37,2013-09-03 15:30:00,
2013-09-03 11:35:00,76.5,72.7,29.74,SW,214,3.0,7.0,88,0.00,SCT,SCT,0.00,650.0,WeatherDisplay:10.37,2013-09-03 15:35:00,
2013-09-03 11:40:00,76.4,72.3,29.74,SSW,197,3.0,9.0,87,0.00,SCT,SCT,0.00,487.0,WeatherDisplay:10.37,2013-09-03 15:40:00,
2013-09-03 11:45:00,76.8,72.7,29.73,SSW,197,5.0,9.0,87,0.00,SCT,SCT,0.00,668.0,WeatherDisplay:10.37,2013-09-03 15:45:00,
2013-09-03 11:50:00,77.1,72.9,29.73,SSW,207,5.0,8.0,87,0.00,SCT,SCT,0.00,497.0,WeatherDisplay:10.37,2013-09-03 15:50:00,
2013-09-03 11:55:00,77.2,72.7,29.73,SW,219,2.0,10.0,86,0.00,SCT,SCT,0.00,512.0,WeatherDisplay:10.37,2013-09-03 15:55:00,
2013-09-03 12:00:00,76.9,72.4,29.73,SW,220,5.0,12.0,86,0.00,SCT,SCT,0.00,649.0,WeatherDisplay:10.37,2013-09-03 16:00:00,
2013-09-03 12:10:00,76.8,72.6,29.73,SW,221,5.0,12.0,87,0.00,OVC,OVC,0.00,482.0,WeatherDisplay:10.37,2013-09-03 16:10:00,
2013-09-03 12:15:00,76.1,72.3,29.73,SSW,212,3.0,10.0,88,0.00,OVC,OVC,0.00,482.0,WeatherDisplay:10.37,2013-09-03 16:15:00,
2013-09-03 12:20:00,76.5,72.4,29.73,SSW,213,6.0,9.0,87,0.00,OVC,OVC,0.00,432.0,WeatherDisplay:10.37,2013-09-03 16:20:00,
2013-09-03 12:25:00,75.8,71.6,29.73,SW,216,5.0,12.0,87,0.00,OVC,OVC,0.00,399.0,WeatherDisplay:10.37,2013-09-03 16:25:00,
2013-09-03 12:30:00,75.1,71.3,29.73,SSW,204,2.0,7.0,88,0.00,OVC,OVC,0.00,519.0,WeatherDisplay:10.37,2013-09-03 16:30:00,
2013-09-03 12:35:00,75.7,72.2,29.73,SSW,204,2.0,10.0,89,0.00,OVC,OVC,0.00,394.0,WeatherDisplay:10.37,2013-09-03 16:35:00,
2013-09-03 12:40:00,75.3,71.5,29.73,SSW,196,7.0,12.0,88,0.00,OVC,OVC,0.00,851.0,WeatherDisplay:10.37,2013-09-03 16:40:00,
2013-09-03 12:45:00,75.6,71.8,29.72,SSW,196,3.0,10.0,88,0.00,OVC,OVC,0.00,896.0,WeatherDisplay:10.37,2013-09-03 16:45:00,
2013-09-03 12:50:00,76.6,72.1,29.72,South,189,5.0,8.0,86,0.00,OVC,OVC,0.00,519.0,WeatherDisplay:10.37,2013-09-03 16:50:00,
2013-09-03 12:55:00,76.2,71.7,29.72,South,177,5.0,10.0,86,0.00,OVC,OVC,0.00,823.0,WeatherDisplay:10.37,2013-09-03 16:55:00,
2013-09-03 13:00:00,76.5,72.0,29.73,South,191,3.0,9.0,86,0.00,OVC,OVC,0.00,731.0,WeatherDisplay:10.37,2013-09-03 17:00:00,
2013-09-03 13:05:00,76.9,71.7,29.73,SSW,197,7.0,12.0,84,0.00,OVC,OVC,0.00,777.0,WeatherDisplay:10.37,2013-09-03 17:05:00,
2013-09-03 13:10:00,76.4,71.6,29.73,SSW,197,7.0,12.0,85,0.00,OVC,OVC,0.00,844.0,WeatherDisplay:10.37,2013-09-03 17:10:00,
2013-09-03 13:15:00,76.6,71.7,29.72,SSW,195,6.0,11.0,85,0.00,OVC,OVC,0.00,823.0,WeatherDisplay:10.37,2013-09-03 17:15:00,
2013-09-03 13:20:00,76.1,71.6,29.72,SSW,195,5.0,12.0,86,0.00,OVC,OVC,0.00,853.0,WeatherDisplay:10.37,2013-09-03 17:20:00,
2013-09-03 13:25:00,75.9,71.4,29.72,SW,219,7.0,12.0,86,0.00,OVC,OVC,0.00,656.0,WeatherDisplay:10.37,2013-09-03 17:25:00,
2013-09-03 13:30:00,75.6,71.4,29.74,SW,229,7.0,13.0,87,0.00,OVC,OVC,0.00,285.0,WeatherDisplay:10.37,2013-09-03 17:30:00,
2013-09-03 13:35:00,74.8,71.0,29.74,SW,224,6.0,13.0,88,0.00,OVC,OVC,0.00,160.0,WeatherDisplay:10.37,2013-09-03 17:35:00,
2013-09-03 13:40:00,74.5,71.4,29.74,SW,235,6.0,12.0,90,0.00,OVC,OVC,0.00,121.0,WeatherDisplay:10.37,2013-09-03 17:40:00,
2013-09-03 13:45:00,74.0,70.9,29.73,WSW,240,6.0,14.0,90,0.00,OVC,OVC,0.00,93.0,WeatherDisplay:10.37,2013-09-03 17:45:00,
2013-09-03 13:50:00,73.6,71.1,29.73,SW,220,8.0,12.0,92,0.00,OVC,OVC,0.00,107.0,WeatherDisplay:10.37,2013-09-03 17:50:00,
2013-09-03 13:55:00,73.4,70.9,29.73,SW,218,5.0,10.0,92,0.00,OVC,OVC,0.00,230.0,WeatherDisplay:10.37,2013-09-03 17:55:00,
2013-09-03 14:00:00,74.0,71.8,29.73,SW,218,3.0,10.0,93,0.00,OVC,OVC,0.00,548.0,WeatherDisplay:10.37,2013-09-03 18:00:00,
2013-09-03 14:05:00,74.5,72.0,29.73,SSW,210,2.0,12.0,92,0.00,OVC,OVC,0.00,290.0,WeatherDisplay:10.37,2013-09-03 18:05:00,
2013-09-03 14:10:00,74.7,71.9,29.73,SSW,210,3.0,14.0,91,0.00,OVC,OVC,0.00,301.0,WeatherDisplay:10.37,2013-09-03 18:10:00,
2013-09-03 14:15:00,75.1,72.3,29.71,SSW,212,3.0,10.0,91,0.00,OVC,OVC,0.00,425.0,WeatherDisplay:10.37,2013-09-03 18:15:00,
2013-09-03 14:20:00,75.7,72.6,29.71,SW,214,6.0,12.0,90,0.00,OVC,OVC,0.00,473.0,WeatherDisplay:10.37,2013-09-03 18:20:00,
2013-09-03 14:25:00,76.1,72.6,29.71,SW,218,9.0,15.0,89,0.00,OVC,OVC,0.00,374.0,WeatherDisplay:10.37,2013-09-03 18:25:00,
2013-09-03 14:30:00,75.9,72.4,29.70,South,189,7.0,14.0,89,0.00,OVC,OVC,0.00,290.0,WeatherDisplay:10.37,2013-09-03 18:30:00,
2013-09-03 14:40:00,75.1,72.0,29.70,South,190,7.0,12.0,90,0.00,OVC,OVC,0.00,167.0,WeatherDisplay:10.37,2013-09-03 18:40:00,
2013-09-03 14:45:00,74.7,71.6,29.69,SSW,198,8.0,14.0,90,0.00,OVC,OVC,0.00,167.0,WeatherDisplay:10.37,2013-09-03 18:45:00,
2013-09-03 14:50:00,74.4,71.9,29.69,SSW,205,2.0,13.0,92,0.00,OVC,OVC,0.00,167.0,WeatherDisplay:10.37,2013-09-03 18:50:00,
2013-09-03 14:55:00,74.5,72.0,29.69,SW,220,5.0,12.0,92,0.00,OVC,OVC,0.00,165.0,WeatherDisplay:10.37,2013-09-03 18:55:00,
2013-09-03 15:00:00,74.4,71.9,29.69,SSW,210,2.0,12.0,92,0.00,OVC,OVC,0.00,120.0,WeatherDisplay:10.37,2013-09-03 19:00:00,
2013-09-03 15:05:00,74.4,71.9,29.69,SSW,205,3.0,12.0,92,0.00,OVC,OVC,0.00,114.0,WeatherDisplay:10.37,2013-09-03 19:05:00,
2013-09-03 15:10:00,74.1,71.6,29.69,SSW,201,3.0,12.0,92,0.00,OVC,OVC,0.00,88.0,WeatherDisplay:10.37,2013-09-03 19:10:00,
2013-09-03 15:15:00,74.0,71.8,29.68,SSW,200,3.0,7.0,93,0.00,OVC,OVC,0.00,63.0,WeatherDisplay:10.37,2013-09-03 19:15:00,
2013-09-03 15:20:00,73.7,71.5,29.68,SSW,206,6.0,12.0,93,0.00,OVC,OVC,0.00,44.0,WeatherDisplay:10.37,2013-09-03 19:20:00,
2013-09-03 15:25:00,73.3,71.1,29.68,South,189,6.0,15.0,93,0.00,OVC,OVC,0.00,40.0,WeatherDisplay:10.37,2013-09-03 19:25:00,
2013-09-03 15:30:00,72.9,71.1,29.69,SSW,198,3.0,12.0,94,0.00,OVC,OVC,0.00,37.0,WeatherDisplay:10.37,2013-09-03 19:30:00,
2013-09-03 15:35:00,72.6,70.8,29.69,SSW,195,6.0,10.0,94,0.00,OVC,OVC,0.00,35.0,WeatherDisplay:10.37,2013-09-03 19:35:00,
2013-09-03 15:40:00,72.4,70.9,29.69,SSW,203,3.0,12.0,95,0.00,OVC,OVC,0.00,26.0,WeatherDisplay:10.37,2013-09-03 19:40:00,
2013-09-03 15:45:00,72.3,70.8,29.71,SW,236,2.0,8.0,95,0.00,OVC,OVC,0.00,30.0,WeatherDisplay:10.37,2013-09-03 19:45:00,
2013-09-03 15:50:00,72.3,71.1,29.71,WSW,242,3.0,9.0,96,0.00,OVC,OVC,0.00,40.0,WeatherDisplay:10.37,2013-09-03 19:50:00,
2013-09-03 15:55:00,72.4,71.2,29.71,SW,222,2.0,9.0,96,0.00,OVC,OVC,0.00,46.0,WeatherDisplay:10.37,2013-09-03 19:55:00,
2013-09-03 16:00:00,72.6,71.4,29.71,SW,235,2.0,12.0,96,0.00,OVC,OVC,0.00,44.0,WeatherDisplay:10.37,2013-09-03 20:00:00,
2013-09-03 16:05:00,72.7,71.5,29.71,WSW,240,3.0,10.0,96,0.00,OVC,OVC,0.00,69.0,WeatherDisplay:10.37,2013-09-03 20:05:00,
2013-09-03 16:10:00,72.8,71.6,29.71,WSW,244,5.0,12.0,96,0.00,OVC,OVC,0.00,77.0,WeatherDisplay:10.37,2013-09-03 20:10:00,
2013-09-03 16:15:00,72.9,71.7,29.71,WSW,242,3.0,7.0,96,0.00,OVC,OVC,0.00,58.0,WeatherDisplay:10.37,2013-09-03 20:15:00,
2013-09-03 16:20:00,72.9,71.7,29.71,SW,226,3.0,7.0,96,0.00,OVC,OVC,0.00,46.0,WeatherDisplay:10.37,2013-09-03 20:20:00,
2013-09-03 16:30:00,72.8,71.6,29.71,WSW,237,5.0,10.0,96,0.00,OVC,OVC,0.00,26.0,WeatherDisplay:10.37,2013-09-03 20:30:00,
2013-09-03 16:35:00,72.8,71.6,29.71,SW,236,5.0,10.0,96,0.00,OVC,OVC,0.00,26.0,WeatherDisplay:10.37,2013-09-03 20:35:00,
2013-09-03 16:40:00,72.8,71.6,29.71,WSW,240,2.0,10.0,96,0.00,OVC,OVC,0.00,16.0,WeatherDisplay:10.37,2013-09-03 20:40:00,
2013-09-03 16:45:00,72.8,71.6,29.72,WSW,247,3.0,10.0,96,0.00,OVC,OVC,0.00,9.0,WeatherDisplay:10.37,2013-09-03 20:45:00,
2013-09-03 16:50:00,72.8,71.6,29.72,WSW,242,2.0,7.0,96,0.00,OVC,OVC,0.00,5.0,WeatherDisplay:10.37,2013-09-03 20:50:00,
2013-09-03 16:55:00,72.9,71.7,29.72,WSW,252,6.0,9.0,96,0.00,OVC,OVC,0.00,0.0,WeatherDisplay:10.37,2013-09-03 20:55:00,
2013-09-03 17:00:00,72.9,71.7,29.73,WNW,287,6.0,12.0,96,0.00,OVC,OVC,0.00,0.0,WeatherDisplay:10.37,2013-09-03 21:00:00,
2013-09-03 17:05:00,71.5,68.4,29.73,WNW,297,8.0,22.0,90,0.00,OVC,OVC,0.00,0.0,WeatherDisplay:10.37,2013-09-03 21:05:00,
2013-09-03 17:10:00,70.0,66.2,29.73,WNW,299,6.0,15.0,88,0.06,RA,RA,0.06,9.0,WeatherDisplay:10.37,2013-09-03 21:10:00,
2013-09-03 17:15:00,68.7,65.6,29.72,NNW,339,5.0,10.0,90,0.08,RA,RA,0.08,0.0,WeatherDisplay:10.37,2013-09-03 21:15:00,
2013-09-03 17:20:00,67.7,65.3,29.72,North,8,5.0,13.0,92,0.02,RA,RA,0.08,0.0,WeatherDisplay:10.37,2013-09-03 21:20:00,
2013-09-03 17:25:00,67.1,65.0,29.72,NNE,15,3.0,7.0,93,0.00,OVC,OVC,0.08,0.0,WeatherDisplay:10.37,2013-09-03 21:25:00,
2013-09-03 17:35:00,66.8,64.7,29.71,NNE,14,3.0,7.0,93,0.01,RA,RA,0.09,0.0,WeatherDisplay:10.37,2013-09-03 21:35:00,
2013-09-03 17:40:00,66.6,64.8,29.71,North,11,1.0,3.0,94,0.07,RA,RA,0.15,0.0,WeatherDisplay:10.37,2013-09-03 21:40:00,
2013-09-03 17:45:00,66.5,64.7,29.71,NE,45,1.0,4.0,94,0.12,RA,RA,0.21,0.0,WeatherDisplay:10.37,2013-09-03 21:45:00,
2013-09-03 17:50:00,66.5,65.0,29.70,NNE,23,1.0,4.0,95,0.10,RA,RA,0.25,0.0,WeatherDisplay:10.37,2013-09-03 21:50:00,
2013-09-03 17:55:00,66.3,64.8,29.70,NW,315,1.0,4.0,95,0.08,RA,RA,0.29,0.0,WeatherDisplay:10.37,2013-09-03 21:55:00,
2013-09-03 18:00:00,66.0,64.5,29.70,West,270,3.0,4.0,95,0.26,RA,RA,0.51,0.0,WeatherDisplay:10.37,2013-09-03 22:00:00,
2013-09-03 18:05:00,65.7,64.2,29.74,West,280,1.0,2.0,95,0.36,RA,RA,0.65,0.0,WeatherDisplay:10.37,2013-09-03 22:05:00,
2013-09-03 18:10:00,65.5,64.3,29.74,ENE,68,0.0,2.0,96,0.23,RA,RA,0.74,3.0,WeatherDisplay:10.37,2013-09-03 22:10:00,
2013-09-03 18:15:00,65.5,64.3,29.74,ENE,68,0.0,3.0,96,0.10,RA,RA,0.75,9.0,WeatherDisplay:10.37,2013-09-03 22:15:00,
2013-09-03 18:26:00,65.6,64.4,29.73,ENE,68,0.0,3.0,96,0.01,RA,RA,0.75,7.0,WeatherDisplay:10.37,2013-09-03 22:26:00,
2013-09-03 18:35:00,65.8,64.9,29.72,NNW,336,0.0,1.0,97,0.01,RA,RA,0.76,0.0,WeatherDisplay:10.37,2013-09-03 22:35:00,
2013-09-03 18:40:00,65.9,65.0,29.72,NW,308,0.0,4.0,97,0.01,RA,RA,0.76,0.0,WeatherDisplay:10.37,2013-09-03 22:40:00,
2013-09-03 18:45:00,66.0,65.1,29.71,North,353,1.0,3.0,97,0.00,OVC,OVC,0.76,0.0,WeatherDisplay:10.37,2013-09-03 22:45:00,
2013-09-03 18:50:00,66.0,65.1,29.71,ENE,64,1.0,2.0,97,0.00,OVC,OVC,0.76,0.0,WeatherDisplay:10.37,2013-09-03 22:50:00,
2013-09-03 18:55:00,65.9,65.0,29.71,South,176,0.0,4.0,97,0.00,OVC,OVC,0.76,0.0,WeatherDisplay:10.37,2013-09-03 22:55:00,
2013-09-03 19:00:00,66.1,65.2,29.71,NE,45,2.0,4.0,97,0.00,RA,RA,0.78,0.0,WeatherDisplay:10.37,2013-09-03 23:00:00,
2013-09-03 19:05:00,66.3,65.4,29.71,NNE,18,0.0,2.0,97,0.02,RA,RA,0.78,0.0,WeatherDisplay:10.37,2013-09-03 23:05:00,
2013-09-03 19:10:00,66.4,65.5,29.71,NE,37,0.0,2.0,97,0.00,OVC,OVC,0.78,0.0,WeatherDisplay:10.37,2013-09-03 23:10:00,
2013-09-03 19:15:00,66.3,65.4,29.71,SE,131,0.0,3.0,97,0.00,OVC,OVC,0.78,0.0,WeatherDisplay:10.37,2013-09-03 23:15:00,
2013-09-03 19:20:00,66.3,65.5,29.71,South,173,0.0,1.0,97,0.00,OVC,OVC,0.78,0.0,WeatherDisplay:10.37,2013-09-03 23:20:00,
2013-09-03 19:25:00,66.4,65.5,29.71,South,173,0.0,1.0,97,0.00,OVC,OVC,0.78,0.0,WeatherDisplay:10.37,2013-09-03 23:25:00,
2013-09-03 19:30:00,66.5,65.6,29.71,South,173,0.0,1.0,97,0.00,OVC,OVC,0.78,0.0,WeatherDisplay:10.37,2013-09-03 23:30:00,
2013-09-03 19:35:00,66.5,65.6,29.71,South,173,0.0,1.0,97,0.00,OVC,OVC,0.78,0.0,WeatherDisplay:10.37,2013-09-03 23:35:00,
2013-09-03 19:40:00,66.6,65.7,29.71,South,173,0.0,0.0,97,0.00,OVC,OVC,0.78,0.0,WeatherDisplay:10.37,2013-09-03 23:40:00,
2013-09-03 19:50:00,66.9,66.0,29.72,South,173,0.0,0.0,97,0.00,OVC,OVC,0.78,0.0,WeatherDisplay:10.37,2013-09-03 23:50:00,
2013-09-03 19:55:00,66.9,66.0,29.72,South,173,0.0,0.0,97,0.00,OVC,OVC,0.78,0.0,WeatherDisplay:10.37,2013-09-03 23:55:00,
2013-09-03 20:00:00,67.0,66.1,29.72,South,173,0.0,0.0,97,0.00,OVC,OVC,0.78,0.0,WeatherDisplay:10.37,2013-09-04 00:00:00,
2013-09-03 20:05:00,66.9,66.0,29.72,South,171,0.0,2.0,97,0.00,OVC,OVC,0.78,0.0,WeatherDisplay:10.37,2013-09-04 00:05:00,
2013-09-03 20:10:00,66.8,66.0,29.72,SSE,162,0.0,2.0,97,0.00,OVC,OVC,0.78,0.0,WeatherDisplay:10.37,2013-09-04 00:10:00,
2013-09-03 20:15:00,66.9,66.0,29.73,South,188,1.0,2.0,97,0.00,OVC,OVC,0.78,0.0,WeatherDisplay:10.37,2013-09-04 00:15:00,
2013-09-03 20:20:00,66.9,66.0,29.73,SSW,207,0.0,2.0,97,0.00,OVC,OVC,0.78,0.0,WeatherDisplay:10.37,2013-09-04 00:20:00,
2013-09-03 20:25:00,67.0,66.1,29.73,SSW,192,0.0,1.0,97,0.00,OVC,OVC,0.78,0.0,WeatherDisplay:10.37,2013-09-04 00:25:00,
2013-09-03 20:30:00,67.0,66.1,29.73,South,180,0.0,1.0,97,0.00,OVC,OVC,0.78,0.0,WeatherDisplay:10.37,2013-09-04 00:30:00,
2013-09-03 20:35:00,67.0,66.1,29.73,South,180,0.0,1.0,97,0.00,OVC,OVC,0.78,0.0,WeatherDisplay:10.37,2013-09-04 00:35:00,
2013-09-03 20:40:00,67.1,66.2,29.73,South,180,0.0,2.0,97,0.00,OVC,OVC,0.78,0.0,WeatherDisplay:10.37,2013-09-04 00:40:00,
2013-09-03 20:45:00,67.1,66.2,29.74,South,180,0.0,0.0,97,0.00,OVC,OVC,0.78,0.0,WeatherDisplay:10.37,2013-09-04 00:45:00,
2013-09-03 20:50:00,67.1,66.2,29.74,South,180,0.0,0.0,97,0.00,OVC,OVC,0.78,0.0,WeatherDisplay:10.37,2013-09-04 00:50:00,
2013-09-03 20:55:00,67.2,66.3,29.74,South,180,0.0,0.0,97,0.01,RA,RA,0.79,0.0,WeatherDisplay:10.37,2013-09-04 00:55:00,
2013-09-03 21:00:00,67.2,66.6,29.75,SSW,193,1.0,4.0,98,0.00,RA,RA,0.79,0.0,WeatherDisplay:10.37,2013-09-04 01:00:00,
2013-09-03 21:05:00,67.3,66.7,29.75,WNW,291,0.0,3.0,98,0.00,OVC,OVC,0.79,0.0,WeatherDisplay:10.37,2013-09-04 01:05:00,
2013-09-03 21:10:00,67.2,66.3,29.75,NW,312,1.0,2.0,97,0.00,OVC,OVC,0.79,0.0,WeatherDisplay:10.37,2013-09-04 01:10:00,
2013-09-03 21:15:00,67.2,66.3,29.75,NW,312,0.0,2.0,97,0.00,OVC,OVC,0.79,0.0,WeatherDisplay:10.37,2013-09-04 01:15:00,
2013-09-03 21:20:00,67.2,66.6,29.75,NW,312,0.0,2.0,98,0.00,OVC,OVC,0.79,0.0,WeatherDisplay:10.37,2013-09-04 01:20:00,
2013-09-03 21:25:00,67.2,66.6,29.75,NW,312,0.0,0.0,98,0.00,OVC,OVC,0.79,0.0,WeatherDisplay:10.37,2013-09-04 01:25:00,
2013-09-03 21:30:00,67.3,66.7,29.75,NW,312,0.0,1.0,98,0.00,OVC,OVC,0.79,0.0,WeatherDisplay:10.37,2013-09-04 01:30:00,
2013-09-03 21:35:00,67.3,66.7,29.75,NW,312,0.0,0.0,98,0.00,OVC,OVC,0.79,0.0,WeatherDisplay:10.37,2013-09-04 01:35:00,
2013-09-03 21:40:00,67.4,66.8,29.75,NW,312,0.0,1.0,98,0.00,OVC,OVC,0.79,0.0,WeatherDisplay:10.37,2013-09-04 01:40:00,
2013-09-03 21:45:00,67.4,66.8,29.76,West,277,1.0,3.0,98,0.00,OVC,OVC,0.79,0.0,WeatherDisplay:10.37,2013-09-04 01:45:00,
2013-09-03 21:50:00,67.4,66.8,29.76,SSW,211,1.0,3.0,98,0.00,OVC,OVC,0.79,0.0,WeatherDisplay:10.37,2013-09-04 01:50:00,
2013-09-03 21:55:00,67.5,66.9,29.76,SSW,205,1.0,9.0,98,0.00,OVC,OVC,0.79,0.0,WeatherDisplay:10.37,2013-09-04 01:55:00,
2013-09-03 22:00:00,67.3,66.4,29.76,South,170,1.0,9.0,97,0.00,OVC,OVC,0.79,0.0,WeatherDisplay:10.37,2013-09-04 02:00:00,
2013-09-03 22:05:00,67.1,66.2,29.76,SSE,161,1.0,4.0,97,0.00,OVC,OVC,0.79,0.0,WeatherDisplay:10.37,2013-09-04 02:05:00,
2013-09-03 22:10:00,67.0,66.1,29.76,SSE,163,1.0,3.0,97,0.00,OVC,OVC,0.79,0.0,WeatherDisplay:10.37,2013-09-04 02:10:00,
2013-09-03 22:15:00,66.9,66.0,29.76,SSW,199,1.0,4.0,97,0.00,OVC,OVC,0.79,0.0,WeatherDisplay:10.37,2013-09-04 02:15:00,
2013-09-03 22:20:00,66.9,66.0,29.76,SSW,200,2.0,4.0,97,0.00,OVC,OVC,0.79,0.0,WeatherDisplay:10.37,2013-09-04 02:20:00,
2013-09-03 22:25:00,66.9,66.0,29.76,South,190,0.0,2.0,97,0.00,OVC,OVC,0.79,0.0,WeatherDisplay:10.37,2013-09-04 02:25:00,
2013-09-03 22:30:00,66.8,65.9,29.76,South,189,0.0,3.0,97,0.00,OVC,OVC,0.79,0.0,WeatherDisplay:10.37,2013-09-04 02:30:00,
2013-09-03 22:35:00,66.8,65.9,29.76,South,190,1.0,3.0,97,0.00,OVC,OVC,0.79,0.0,WeatherDisplay:10.37,2013-09-04 02:35:00,
2013-09-03 22:40:00,66.8,65.9,29.76,South,190,1.0,2.0,97,0.00,OVC,OVC,0.79,0.0,WeatherDisplay:10.37,2013-09-04 02:40:00,
2013-09-03 22:45:00,66.9,66.0,29.76,South,190,0.0,1.0,97,0.00,OVC,OVC,0.79,0.0,WeatherDisplay:10.37,2013-09-04 02:45:00,
2013-09-03 22:50:00,66.9,66.3,29.76,South,190,0.0,1.0,98,0.00,OVC,OVC,0.79,0.0,WeatherDisplay:10.37,2013-09-04 02:50:00,
2013-09-03 22:55:00,66.9,66.3,29.76,South,190,0.0,0.0,98,0.00,OVC,OVC,0.79,0.0,WeatherDisplay:10.37,2013-09-04 02:55:00,
2013-09-03 23:00:00,66.9,66.3,29.76,South,190,0.0,0.0,98,0.00,OVC,OVC,0.79,0.0,WeatherDisplay:10.37,2013-09-04 03:00:00,
2013-09-03 23:05:00,67.0,66.4,29.76,South,190,0.0,2.0,98,0.00,OVC,OVC,0.79,0.0,WeatherDisplay:10.37,2013-09-04 03:05:00,
2013-09-03 23:10:00,66.9,66.3,29.76,South,190,0.0,0.0,98,0.00,OVC,OVC,0.79,0.0,WeatherDisplay:10.37,2013-09-04 03:10:00,
2013-09-03 23:15:00,66.8,66.0,29.76,South,190,0.0,1.0,97,0.00,OVC,OVC,0.79,0.0,WeatherDisplay:10.37,2013-09-04 03:15:00,
2013-09-03 23:20:00,66.8,65.9,29.76,SW,214,0.0,3.0,97,0.00,OVC,OVC,0.79,0.0,WeatherDisplay:10.37,2013-09-04 03:20:00,
2013-09-03 23:25:00,66.8,66.2,29.76,SW,227,0.0,1.0,98,0.00,OVC,OVC,0.79,0.0,WeatherDisplay:10.37,2013-09-04 03:25:00,
2013-09-03 23:30:00,66.8,66.2,29.75,SW,227,0.0,1.0,98,0.00,OVC,OVC,0.79,0.0,WeatherDisplay:10.37,2013-09-04 03:30:00,
2013-09-03 23:35:00,66.7,66.1,29.75,SW,227,0.0,1.0,98,0.00,OVC,OVC,0.79,0.0,WeatherDisplay:10.37,2013-09-04 03:35:00,
2013-09-03 23:40:00,66.6,66.0,29.75,SW,227,0.0,1.0,98,0.00,OVC,OVC,0.79,0.0,WeatherDisplay:10.37,2013-09-04 03:40:00,
2013-09-03 23:45:00,66.5,65.9,29.75,SW,227,0.0,1.0,98,0.00,OVC,OVC,0.79,0.0,WeatherDisplay:10.37,2013-09-04 03:45:00,
2013-09-03 23:50:00,66.3,65.5,29.75,SW,227,0.0,1.0,97,0.00,OVC,OVC,0.79,0.0,WeatherDisplay:10.37,2013-09-04 03:50:00,
2013-09-03 23:55:00,66.3,65.4,29.75,SW,227,0.0,1.0,97,0.00,OVC,OVC,0.79,0.0,WeatherDisplay:10.37,2013-09-04 03:55:00,